createdAt,value
2023-02-01T00:01:58.704Z,8.53
2023-02-01T00:04:27.675Z,8.80
2023-02-01T00:06:56.823Z,9.13
2023-02-01T00:09:25.959Z,9.07
2023-02-01T00:11:56.269Z,9.13
2023-02-01T00:14:25.296Z,9.27
2023-02-01T00:16:54.306Z,9.00
2023-02-01T00:19:23.399Z,9.27
2023-02-01T00:21:52.472Z,8.70
2023-02-01T00:24:21.426Z,9.10
2023-02-01T00:26:50.680Z,9.00
2023-02-01T00:29:22.389Z,8.67
2023-02-01T00:31:53.091Z,9.03
2023-02-01T00:34:22.334Z,8.77
2023-02-01T00:36:51.727Z,8.97
2023-02-01T00:39:20.549Z,8.93
2023-02-01T00:41:49.424Z,9.17
2023-02-01T00:44:19.973Z,9.33
2023-02-01T00:46:48.981Z,9.50
2023-02-01T00:49:18.070Z,9.07
2023-02-01T00:51:46.998Z,9.40
2023-02-01T00:54:15.972Z,9.20
2023-02-01T00:56:45.232Z,9.07
2023-02-01T00:59:14.743Z,8.97
2023-02-01T01:01:45.225Z,9.33
2023-02-01T01:04:14.305Z,8.90
2023-02-01T01:06:43.076Z,8.90
2023-02-01T01:09:12.386Z,9.23
2023-02-01T01:11:41.704Z,9.03
2023-02-01T01:14:11.465Z,9.40
2023-02-01T01:16:40.681Z,9.33
2023-02-01T01:19:11.070Z,8.57
2023-02-01T01:21:40.447Z,9.03
2023-02-01T01:24:09.355Z,9.00
2023-02-01T01:26:38.555Z,9.37
2023-02-01T01:29:07.854Z,9.30
2023-02-01T01:31:36.873Z,8.90
2023-02-01T01:34:05.986Z,8.73
2023-02-01T01:36:36.392Z,8.97
2023-02-01T01:39:05.135Z,8.70
2023-02-01T01:41:34.689Z,8.60
2023-02-01T01:44:46.170Z,8.80
2023-02-01T01:47:17.364Z,8.80
2023-02-01T01:49:46.586Z,8.30
2023-02-01T01:52:17.100Z,8.93
2023-02-01T01:54:49.225Z,8.23
2023-02-01T01:57:21.860Z,8.80
2023-02-01T01:59:58.390Z,8.70
2023-02-01T02:02:27.353Z,8.60
2023-02-01T02:04:56.442Z,8.57
2023-02-01T02:07:30.924Z,8.50
2023-02-01T02:10:01.374Z,8.90
2023-02-01T02:12:31.094Z,8.70
2023-02-01T02:15:00.333Z,8.57
2023-02-01T02:17:35.635Z,8.30
2023-02-01T02:20:46.924Z,8.33
2023-02-01T02:23:50.943Z,8.17
2023-02-01T02:26:45.956Z,7.93
2023-02-01T02:30:07.295Z,8.10
2023-02-01T02:33:13.595Z,8.07
2023-02-01T02:35:49.082Z,7.77
2023-02-01T02:38:26.295Z,7.90
2023-02-01T02:41:04.088Z,7.63
2023-02-01T02:43:58.950Z,7.90
2023-02-01T02:46:53.378Z,7.80
2023-02-01T02:49:30.278Z,8.30
2023-02-01T02:52:26.192Z,8.60
2023-02-01T02:54:56.997Z,8.30
2023-02-01T02:57:47.821Z,8.63
2023-02-01T03:00:37.171Z,8.37
2023-02-01T03:03:25.237Z,8.70
2023-02-01T03:05:54.717Z,8.90
2023-02-01T03:08:27.592Z,9.00
2023-02-01T03:11:02.271Z,8.13
2023-02-01T03:13:37.392Z,8.33
2023-02-01T03:16:14.428Z,8.47
2023-02-01T03:18:48.997Z,9.20
2023-02-01T03:21:23.357Z,8.67
2023-02-01T03:23:57.132Z,8.40
2023-02-01T03:26:30.095Z,8.63
2023-02-01T03:29:04.626Z,9.13
2023-02-01T03:31:35.095Z,8.57
2023-02-01T03:34:04.480Z,8.40
2023-02-01T03:36:39.589Z,8.40
2023-02-01T03:39:17.467Z,8.27
2023-02-01T03:41:51.491Z,8.57
2023-02-01T03:44:25.265Z,9.10
2023-02-01T03:46:58.242Z,9.27
2023-02-01T03:49:31.504Z,8.47
2023-02-01T03:52:02.611Z,8.70
2023-02-01T03:54:34.880Z,8.87
2023-02-01T03:57:08.917Z,8.73
2023-02-01T03:59:42.376Z,9.20
2023-02-01T04:02:11.332Z,9.60
2023-02-01T04:04:40.753Z,9.53
2023-02-01T04:07:10.369Z,8.63
2023-02-01T04:09:40.944Z,8.97
2023-02-01T04:12:10.113Z,8.77
2023-02-01T04:14:39.087Z,9.33
2023-02-01T04:17:08.049Z,9.23
2023-02-01T04:19:37.248Z,9.20
2023-02-01T04:22:06.237Z,9.60
2023-02-01T04:24:35.264Z,9.53
2023-02-01T04:27:05.793Z,9.70
2023-02-01T04:29:35.761Z,9.73
2023-02-01T04:32:05.054Z,9.67
2023-02-01T04:34:34.296Z,9.80
2023-02-01T04:37:03.414Z,10.20
2023-02-01T04:39:32.485Z,10.10
2023-02-01T04:42:01.534Z,10.40
2023-02-01T04:44:32.295Z,10.70
2023-02-01T04:47:01.296Z,10.43
2023-02-01T04:49:30.289Z,10.17
2023-02-01T04:51:59.276Z,9.57
2023-02-01T04:54:28.264Z,10.67
2023-02-01T04:56:57.431Z,10.13
2023-02-01T04:59:26.732Z,10.73
2023-02-01T05:01:57.370Z,10.10
2023-02-01T05:04:26.673Z,9.63
2023-02-01T05:06:55.766Z,9.67
2023-02-01T05:09:24.857Z,9.70
2023-02-01T05:12:11.129Z,9.70
2023-02-01T05:14:40.220Z,9.57
2023-02-01T05:17:12.960Z,9.00
2023-02-01T05:19:41.863Z,9.20
2023-02-01T05:22:10.910Z,9.20
2023-02-01T05:24:40.023Z,8.97
2023-02-01T05:27:08.908Z,8.77
2023-02-01T05:29:37.735Z,9.07
2023-02-01T05:32:21.106Z,9.30
2023-02-01T05:34:52.258Z,8.30
2023-02-01T05:37:21.127Z,8.73
2023-02-01T05:39:50.187Z,8.50
2023-02-01T05:42:19.152Z,8.77
2023-02-01T05:44:48.234Z,8.77
2023-02-01T05:47:17.245Z,7.97
2023-02-01T05:49:46.393Z,8.63
2023-02-01T05:52:20.268Z,8.10
2023-02-01T05:54:49.345Z,8.37
2023-02-01T05:57:18.385Z,8.47
2023-02-01T05:59:48.584Z,8.77
2023-02-01T06:02:18.423Z,8.63
2023-02-01T06:04:47.460Z,8.83
2023-02-01T06:07:17.916Z,9.07
2023-02-01T06:09:47.336Z,9.20
2023-02-01T06:12:16.452Z,9.60
2023-02-01T06:14:46.258Z,9.37
2023-02-01T06:17:15.652Z,9.20
2023-02-01T06:19:45.757Z,8.93
2023-02-01T06:22:14.771Z,9.27
2023-02-01T06:24:45.459Z,9.30
2023-02-01T06:27:15.573Z,9.30
2023-02-01T06:29:44.612Z,8.73
2023-02-01T06:32:14.819Z,9.13
2023-02-01T06:34:44.112Z,9.40
2023-02-01T06:37:13.416Z,9.60
2023-02-01T06:39:43.748Z,9.50
2023-02-01T06:42:12.729Z,9.07
2023-02-01T06:44:41.727Z,9.70
2023-02-01T06:47:10.926Z,9.10
2023-02-01T06:49:41.318Z,9.07
2023-02-01T06:52:10.573Z,9.37
2023-02-01T06:54:39.747Z,9.13
2023-02-01T06:57:10.275Z,9.40
2023-02-01T06:59:39.700Z,9.03
2023-02-01T07:02:12.071Z,9.63
2023-02-01T07:04:41.140Z,9.63
2023-02-01T07:07:10.791Z,8.80
2023-02-01T07:09:39.743Z,9.33
2023-02-01T07:12:10.219Z,9.60
2023-02-01T07:14:39.300Z,9.97
2023-02-01T07:17:08.472Z,9.37
2023-02-01T07:19:37.481Z,9.80
2023-02-01T07:22:07.052Z,9.83
2023-02-01T07:24:36.288Z,9.73
2023-02-01T07:27:05.751Z,10.07
2023-02-01T07:29:36.316Z,9.40
2023-02-01T07:32:06.190Z,9.97
2023-02-01T07:34:35.761Z,10.00
2023-02-01T07:37:04.811Z,9.30
2023-02-01T07:39:34.181Z,9.77
2023-02-01T07:42:03.339Z,9.80
2023-02-01T07:44:32.632Z,9.50
2023-02-01T07:47:03.265Z,9.50
2023-02-01T07:49:32.538Z,9.77
2023-02-01T07:52:02.102Z,9.53
2023-02-01T07:54:31.127Z,9.47
2023-02-01T07:57:00.132Z,9.53
2023-02-01T07:59:29.520Z,9.60
2023-02-01T08:01:58.973Z,9.20
2023-02-01T08:04:30.214Z,8.87
2023-02-01T08:06:59.205Z,8.87
2023-02-01T08:09:28.295Z,9.90
2023-02-01T08:11:57.467Z,8.93
2023-02-01T08:14:26.509Z,8.80
2023-02-01T08:16:55.687Z,8.87
2023-02-01T08:19:24.645Z,9.30
2023-02-01T08:21:55.030Z,9.50
2023-02-01T08:24:24.091Z,8.60
2023-02-01T08:26:53.173Z,9.10
2023-02-01T08:29:23.504Z,8.60
2023-02-01T08:31:54.111Z,8.90
2023-02-01T08:34:23.152Z,8.67
2023-02-01T08:36:58.297Z,9.27
2023-02-01T08:39:29.437Z,9.33
2023-02-01T08:42:16.014Z,9.10
2023-02-01T08:44:45.079Z,9.37
2023-02-01T08:47:14.154Z,8.03
2023-02-01T08:49:43.537Z,8.80
2023-02-01T08:52:16.008Z,8.93
2023-02-01T08:54:47.259Z,9.07
2023-02-01T08:57:16.277Z,8.30
2023-02-01T08:59:47.150Z,9.00
2023-02-01T09:02:17.920Z,9.27
2023-02-01T09:04:46.923Z,8.60
2023-02-01T09:07:17.666Z,8.93
2023-02-01T09:09:48.291Z,9.23
2023-02-01T09:12:17.324Z,8.93
2023-02-01T09:14:46.654Z,8.50
2023-02-01T09:17:15.775Z,8.90
2023-02-01T09:19:45.048Z,9.40
2023-02-01T09:22:14.082Z,8.60
2023-02-01T09:24:43.413Z,9.17
2023-02-01T09:27:13.819Z,9.23
2023-02-01T09:29:42.801Z,9.00
2023-02-01T09:32:12.060Z,9.17
2023-02-01T09:34:41.208Z,8.90
2023-02-01T09:37:10.266Z,8.70
2023-02-01T09:39:39.369Z,8.83
2023-02-01T09:42:23.229Z,9.00
2023-02-01T09:45:18.180Z,8.90
2023-02-01T09:47:52.759Z,9.20
2023-02-01T09:50:25.453Z,9.27
2023-02-01T09:52:59.123Z,8.60
2023-02-01T09:55:39.276Z,8.93
2023-02-01T09:58:14.899Z,9.03
2023-02-01T10:00:52.745Z,9.27
2023-02-01T10:03:22.629Z,8.93
2023-02-01T10:06:30.253Z,8.80
2023-02-01T10:09:16.842Z,9.40
2023-02-01T10:12:01.905Z,8.83
2023-02-01T10:14:54.664Z,9.10
2023-02-01T10:17:35.351Z,8.90
2023-02-01T10:20:14.433Z,9.13
2023-02-01T10:25:41.155Z,9.07
2023-02-01T10:28:15.439Z,9.20
2023-02-01T10:30:49.090Z,8.47
2023-02-01T10:33:21.736Z,8.83
2023-02-01T10:35:57.587Z,8.87
2023-02-01T10:38:29.556Z,9.17
2023-02-01T10:41:05.030Z,9.17
2023-02-01T10:43:35.008Z,9.00
2023-02-01T10:46:06.092Z,8.93
2023-02-01T10:48:35.723Z,9.00
2023-02-01T10:51:12.631Z,8.50
2023-02-01T10:53:46.176Z,8.73
2023-02-01T10:56:15.528Z,9.07
2023-02-01T10:58:49.216Z,9.20
2023-02-01T11:01:21.809Z,8.77
2023-02-01T11:03:56.539Z,8.43
2023-02-01T11:06:30.265Z,9.00
2023-02-01T11:09:01.877Z,8.83
2023-02-01T11:11:31.131Z,8.53
2023-02-01T11:14:02.787Z,9.03
2023-02-01T11:16:37.130Z,8.53
2023-02-01T11:19:07.175Z,8.43
2023-02-01T11:21:38.337Z,9.13
2023-02-01T11:24:21.161Z,9.67
2023-02-01T11:26:50.297Z,8.43
2023-02-01T11:29:24.178Z,8.67
2023-02-01T11:31:54.625Z,8.83
2023-02-01T11:34:28.468Z,8.37
2023-02-01T11:37:01.149Z,8.03
2023-02-01T11:39:32.905Z,8.30
2023-02-01T11:42:05.720Z,8.50
2023-02-01T11:44:37.910Z,9.10
2023-02-01T11:47:27.174Z,9.00
2023-02-01T11:49:58.420Z,9.07
2023-02-01T11:52:43.713Z,8.90
2023-02-01T11:55:40.360Z,8.53
2023-02-01T11:58:23.090Z,9.13
2023-02-01T12:01:05.286Z,9.33
2023-02-01T12:04:06.695Z,9.27
2023-02-01T12:06:45.819Z,8.53
2023-02-01T12:09:29.515Z,8.20
2023-02-01T12:12:10.177Z,8.37
2023-02-01T12:14:56.629Z,8.53
2023-02-01T12:17:53.427Z,8.40
2023-02-01T12:20:36.542Z,8.13
2023-02-01T12:23:21.218Z,8.40
2023-02-01T12:26:08.968Z,9.00
2023-02-01T12:29:02.897Z,8.93
2023-02-01T12:31:57.408Z,8.97
2023-02-01T12:34:48.500Z,8.73
2023-02-01T12:37:32.119Z,9.07
2023-02-01T12:40:13.712Z,8.53
2023-02-01T12:42:48.844Z,9.17
2023-02-01T12:45:27.206Z,9.27
2023-02-01T12:48:02.512Z,9.43
2023-02-01T12:50:45.837Z,9.40
2023-02-01T12:53:25.389Z,9.10
2023-02-01T12:55:57.303Z,8.77
2023-02-01T12:58:29.903Z,9.03
2023-02-01T13:01:02.494Z,8.50
2023-02-01T13:03:54.941Z,9.10
2023-02-01T13:06:44.333Z,8.73
2023-02-01T13:09:22.427Z,9.07
2023-02-01T13:11:54.108Z,9.27
2023-02-01T13:14:35.006Z,9.80
2023-02-01T13:17:06.149Z,9.17
2023-02-01T13:19:44.516Z,8.90
2023-02-01T13:22:17.701Z,8.73
2023-02-01T13:24:52.669Z,9.73
2023-02-01T13:27:22.151Z,9.00
2023-02-01T13:29:57.363Z,8.70
2023-02-01T13:33:53.309Z,8.77
2023-02-01T13:35:58.836Z,8.87
2023-02-01T13:38:46.365Z,8.97
2023-02-01T13:41:29.750Z,8.70
2023-02-01T13:44:03.712Z,9.07
2023-02-01T13:46:41.116Z,8.40
2023-02-01T13:49:21.964Z,8.80
2023-02-01T13:51:55.837Z,8.43
2023-02-01T13:54:33.258Z,8.60
2023-02-01T13:57:06.287Z,8.90
2023-02-01T14:00:00.739Z,8.67
2023-02-01T14:03:16.953Z,9.00
2023-02-01T14:06:36.628Z,8.33
2023-02-01T14:09:38.028Z,8.97
2023-02-01T14:12:45.319Z,9.20
2023-02-01T14:15:30.079Z,8.80
2023-02-01T14:17:59.438Z,8.80
2023-02-01T14:20:49.858Z,8.97
2023-02-01T14:23:24.390Z,8.80
2023-02-01T14:26:18.625Z,8.27
2023-02-01T14:28:54.081Z,8.30
2023-02-01T14:31:55.650Z,8.23
2023-02-01T14:34:32.643Z,8.67
2023-02-01T14:37:06.052Z,8.70
2023-02-01T14:39:57.767Z,8.30
2023-02-01T14:42:29.991Z,8.97
2023-02-01T14:45:46.028Z,8.37
2023-02-01T14:48:46.961Z,8.33
2023-02-01T14:51:19.765Z,8.77
2023-02-01T14:53:49.716Z,8.57
2023-02-01T14:56:22.921Z,8.07
2023-02-01T14:58:58.243Z,8.37
2023-02-01T15:01:31.408Z,8.63
2023-02-01T15:04:06.744Z,8.67
2023-02-01T15:06:40.312Z,8.37
2023-02-01T15:09:16.397Z,8.37
2023-02-01T15:12:03.561Z,8.37
2023-02-01T15:14:34.572Z,8.43
2023-02-01T15:17:03.962Z,8.33
2023-02-01T15:19:34.477Z,9.67
2023-02-01T15:22:03.612Z,8.90
2023-02-01T15:24:33.656Z,8.50
2023-02-01T15:27:06.957Z,9.20
2023-02-01T15:29:36.548Z,8.67
2023-02-01T15:32:07.132Z,8.47
2023-02-01T15:34:52.499Z,8.87
2023-02-01T15:37:24.155Z,9.13
2023-02-01T15:40:23.903Z,8.57
2023-02-01T15:42:55.096Z,8.83
2023-02-01T15:45:28.761Z,8.93
2023-02-01T15:48:00.165Z,8.70
2023-02-01T15:50:33.857Z,8.43
2023-02-01T15:53:03.190Z,8.73
2023-02-01T15:55:38.632Z,8.90
2023-02-01T15:58:08.620Z,8.50
2023-02-01T16:00:45.416Z,8.20
2023-02-01T16:03:28.953Z,8.43
2023-02-01T16:06:01.694Z,8.87
2023-02-01T16:08:33.072Z,8.63
2023-02-01T16:11:15.916Z,8.80
2023-02-01T16:13:44.979Z,8.73
2023-02-01T16:16:15.313Z,8.63
2023-02-01T16:18:44.955Z,8.67
2023-02-01T16:21:15.685Z,8.80
2023-02-01T16:23:44.741Z,8.60
2023-02-01T16:26:13.836Z,8.33
2023-02-01T16:28:42.985Z,8.43
2023-02-01T16:31:20.120Z,8.50
2023-02-01T16:33:51.724Z,8.80
2023-02-01T16:36:22.922Z,9.20
2023-02-01T16:38:54.170Z,8.53
2023-02-01T16:41:25.670Z,8.70
2023-02-01T16:43:56.504Z,8.63
2023-02-01T16:46:28.802Z,8.43
2023-02-01T16:49:00.129Z,9.07
2023-02-01T16:51:33.626Z,7.97
2023-02-01T16:54:03.541Z,8.90
2023-02-01T16:56:34.621Z,8.77
2023-02-01T16:59:03.962Z,8.03
2023-02-01T17:01:33.099Z,9.03
2023-02-01T17:04:03.438Z,9.20
2023-02-01T17:06:34.428Z,9.30
2023-02-01T17:09:04.067Z,8.43
2023-02-01T17:11:32.978Z,8.63
2023-02-01T17:14:11.200Z,9.00
2023-02-01T17:16:41.389Z,11.87
2023-02-01T17:19:16.169Z,9.40
2023-02-01T17:21:49.893Z,8.67
2023-02-01T17:24:20.637Z,9.20
2023-02-01T17:26:51.527Z,8.70
2023-02-01T17:29:20.987Z,9.20
2023-02-01T17:31:52.643Z,8.60
2023-02-01T17:34:23.017Z,9.00
2023-02-01T17:36:53.624Z,8.87
2023-02-01T17:39:40.465Z,9.20
2023-02-01T17:42:12.846Z,8.37
2023-02-01T17:44:41.871Z,8.60
2023-02-01T17:47:10.681Z,8.97
2023-02-01T17:49:39.610Z,9.07
2023-02-01T17:52:15.749Z,8.70
2023-02-01T17:54:44.972Z,8.43
2023-02-01T17:57:14.583Z,9.20
2023-02-01T17:59:43.875Z,8.50
2023-02-01T18:02:21.010Z,9.03
2023-02-01T18:04:51.164Z,8.83
2023-02-01T18:07:21.649Z,9.03
2023-02-01T18:09:50.638Z,9.53
2023-02-01T18:12:22.893Z,9.27
2023-02-01T18:14:52.232Z,9.30
2023-02-01T18:17:21.273Z,9.90
2023-02-01T18:19:50.578Z,8.70
2023-02-01T18:22:24.120Z,9.23
2023-02-01T18:24:52.868Z,9.10
2023-02-01T18:27:21.850Z,9.50
2023-02-01T18:29:51.004Z,8.83
2023-02-01T18:32:19.857Z,9.03
2023-02-01T18:34:48.709Z,9.67
2023-02-01T18:37:17.771Z,9.10
2023-02-01T18:39:47.976Z,9.07
2023-02-01T18:42:16.877Z,8.57
2023-02-01T18:44:48.764Z,8.83
2023-02-01T18:47:20.464Z,8.43
2023-02-01T18:49:49.457Z,9.20
2023-02-01T18:52:18.492Z,9.17
2023-02-01T18:54:59.525Z,9.17
2023-02-01T18:57:28.802Z,8.73
2023-02-01T18:59:58.121Z,9.37
2023-02-01T19:02:27.744Z,8.80
2023-02-01T19:04:57.174Z,9.10
2023-02-01T19:07:26.137Z,9.10
2023-02-01T19:09:56.598Z,9.00
2023-02-01T19:12:25.697Z,8.40
2023-02-01T19:14:54.895Z,8.57
2023-02-01T19:17:24.542Z,8.83
2023-02-01T19:19:54.245Z,8.47
2023-02-01T19:22:23.412Z,9.07
2023-02-01T19:24:54.474Z,8.67
2023-02-01T19:27:25.250Z,8.53
2023-02-01T19:29:54.532Z,8.77
2023-02-01T19:32:23.870Z,8.70
2023-02-01T19:34:52.990Z,9.30
2023-02-01T19:37:22.087Z,9.00
2023-02-01T19:39:51.148Z,8.93
2023-02-01T19:42:20.270Z,9.67
2023-02-01T19:44:50.767Z,9.50
2023-02-01T19:47:20.067Z,9.80
2023-02-01T19:49:49.906Z,9.60
2023-02-01T19:52:23.478Z,9.07
2023-02-01T19:54:54.906Z,9.77
2023-02-01T19:57:23.935Z,9.37
2023-02-01T19:59:54.277Z,8.93
2023-02-01T20:02:23.735Z,9.27
2023-02-01T20:04:52.635Z,9.17
2023-02-01T20:07:21.931Z,8.43
2023-02-01T20:09:51.265Z,9.03
2023-02-01T20:12:20.370Z,8.67
2023-02-01T20:14:49.543Z,9.30
2023-02-01T20:17:20.204Z,8.83
2023-02-01T20:19:49.143Z,8.63
2023-02-01T20:22:18.574Z,9.20
2023-02-01T20:24:47.556Z,8.93
2023-02-01T20:27:17.556Z,9.20
2023-02-01T20:29:46.638Z,8.33
2023-02-01T20:32:15.822Z,8.70
2023-02-01T20:34:46.565Z,9.27
2023-02-01T20:37:15.820Z,8.40
2023-02-01T20:39:45.100Z,9.97
2023-02-01T20:42:14.249Z,9.47
2023-02-01T20:44:43.467Z,9.33
2023-02-01T20:47:12.585Z,9.20
2023-02-01T20:49:42.026Z,9.13
2023-02-01T20:52:13.144Z,8.93
2023-02-01T20:54:42.409Z,8.63
2023-02-01T20:57:12.929Z,9.60
2023-02-01T20:59:42.136Z,9.00
2023-02-01T21:02:11.970Z,9.50
2023-02-01T21:04:41.018Z,8.97
2023-02-01T21:07:10.125Z,9.27
2023-02-01T21:09:41.909Z,9.20
2023-02-01T21:12:11.278Z,9.57
2023-02-01T21:14:43.824Z,8.77
2023-02-01T21:17:13.194Z,8.80
2023-02-01T21:19:45.004Z,8.40
2023-02-01T21:22:16.921Z,8.90
2023-02-01T21:24:53.027Z,8.63
2023-02-01T21:27:22.555Z,9.20
2023-02-01T21:29:51.848Z,9.30
2023-02-01T21:32:21.421Z,8.97
2023-02-01T21:34:50.892Z,8.73
2023-02-01T21:37:20.249Z,9.20
2023-02-01T21:39:50.999Z,8.47
2023-02-01T21:42:22.085Z,8.37
2023-02-01T21:44:52.003Z,7.80
2023-02-01T21:47:26.334Z,8.23
2023-02-01T21:49:57.006Z,7.90
2023-02-01T21:52:27.933Z,8.03
2023-02-01T21:54:59.798Z,7.90
2023-02-01T21:57:32.771Z,8.20
2023-02-01T22:00:02.244Z,7.60
2023-02-01T22:02:33.747Z,7.70
2023-02-01T22:05:04.241Z,7.83
2023-02-01T22:07:36.468Z,8.20
2023-02-01T22:10:09.205Z,7.57
2023-02-01T22:12:38.484Z,7.40
2023-02-01T22:15:08.953Z,7.50
2023-02-01T22:17:38.803Z,7.20
2023-02-01T22:20:09.384Z,7.17
2023-02-01T22:22:38.297Z,6.97
2023-02-01T22:25:10.498Z,7.00
2023-02-01T22:28:30.502Z,7.20
2023-02-01T22:30:28.868Z,7.30
2023-02-01T22:32:58.293Z,7.37
2023-02-01T22:35:27.827Z,7.73
2023-02-01T22:37:57.099Z,7.37
2023-02-01T22:40:27.712Z,7.20
2023-02-01T22:42:57.083Z,7.47
2023-02-01T22:45:26.452Z,7.20
2023-02-01T22:47:55.779Z,7.90
2023-02-01T22:50:25.148Z,7.63
2023-02-01T22:52:54.239Z,7.60
2023-02-01T22:55:23.689Z,7.50
2023-02-01T22:57:54.490Z,7.50
2023-02-01T23:00:24.936Z,7.33
2023-02-01T23:02:54.684Z,7.20
2023-02-01T23:05:24.363Z,7.60
2023-02-01T23:07:53.962Z,7.40
2023-02-01T23:10:23.329Z,7.40
2023-02-01T23:12:52.427Z,7.27
2023-02-01T23:15:23.393Z,7.37
2023-02-01T23:17:52.801Z,7.43
2023-02-01T23:20:22.177Z,7.13
2023-02-01T23:22:51.695Z,7.40
2023-02-01T23:25:22.038Z,7.43
2023-02-01T23:27:51.378Z,7.70
2023-02-01T23:30:22.353Z,7.10
2023-02-01T23:32:51.780Z,7.27
2023-02-01T23:35:20.958Z,7.57
2023-02-01T23:37:50.275Z,7.60
2023-02-01T23:40:19.979Z,7.07
2023-02-01T23:43:09.133Z,7.20
2023-02-01T23:45:39.619Z,7.43
2023-02-01T23:48:08.655Z,7.40
2023-02-01T23:50:38.199Z,7.30
2023-02-01T23:53:07.330Z,7.30
2023-02-01T23:55:36.581Z,7.27
2023-02-01T23:58:05.867Z,6.90
